Rawalakot Weather



Rawalakot's Current Weather

Temprature -0.069999999999993o light snow

light snow

Rain: 0 %

Min Temprature-0.069999999999993o
Max Temprature-0.069999999999993o
Humidity82
Wind Speed3.21 m/h
Sun Rise07:00:19
Sun Set16:56:43
Current Time: 12-Dec-2019 01:31:57
Lat/Lon: 33.86, 73.76




Rawalakot's Geo Location



Rawalakot's Weather Forecast

Time Overall Temp Min Temp Max Temp Humidity Wind Speed Rain
12-Dec-2019 (Thu)
02:00:00 light snow -0.070 -0.070 -0.070 82 3.21 m/h 0 %
05:00:00 light snow -0.390 -0.390 -0.390 86 3.62 m/h 0 %
08:00:00 overcast clouds 0.390 0.390 0.390 85 3.05 m/h 0 %
11:00:00 light snow 4.120 4.120 4.120 70 1.54 m/h 0 %
14:00:00 light snow 4.150 4.150 4.150 71 0.72 m/h 0 %
17:00:00 light snow 1.040 1.040 1.040 92 0.17 m/h 0 %
20:00:00 light snow 0.540 0.540 0.540 93 0.65 m/h 0 %
23:00:00 snow -0.240 -0.240 -0.240 97 0.86 m/h 0 %
13-Dec-2019 (Fri)
02:00:00 snow -0.710 -0.710 -0.710 98 0.68 m/h 0 %
05:00:00 snow -0.930 -0.930 -0.930 99 1.2 m/h 0 %
08:00:00 snow -0.830 -0.830 -0.830 98 2 m/h 0 %
11:00:00 snow 0.060 0.060 0.060 100 1.01 m/h 0 %
14:00:00 snow 0.340 0.340 0.340 100 0.96 m/h 0 %
17:00:00 snow 0.060 0.060 0.060 99 0.56 m/h 0 %
20:00:00 snow -0.470 -0.470 -0.470 99 1.23 m/h 0 %
23:00:00 snow -3.520 -3.520 -3.520 99 0.93 m/h 0 %
14-Dec-2019 (Sat)
02:00:00 snow -1.600 -1.600 -1.600 99 1.19 m/h 0 %
05:00:00 snow -1.470 -1.470 -1.470 98 1.19 m/h 0 %
08:00:00 snow -0.820 -0.820 -0.820 98 1.07 m/h 0 %
11:00:00 snow 0.310 0.310 0.310 99 1 m/h 0 %
14:00:00 overcast clouds 0.500 0.500 0.500 98 1.11 m/h 0 %
17:00:00 overcast clouds -0.980 -0.980 -0.980 93 1.32 m/h 0 %
20:00:00 light snow -1.640 -1.640 -1.640 92 2.81 m/h 0 %
23:00:00 overcast clouds -3.780 -3.780 -3.780 87 3 m/h 0 %
15-Dec-2019 (Sun)
02:00:00 overcast clouds -4.590 -4.590 -4.590 87 3.69 m/h 0 %
05:00:00 scattered clouds -5.380 -5.380 -5.380 89 4.31 m/h 0 %
08:00:00 few clouds -4.270 -4.270 -4.270 89 4.32 m/h 0 %
11:00:00 few clouds 0.140 0.140 0.140 95 3.54 m/h 0 %
14:00:00 clear sky 0.500 0.500 0.500 94 2.82 m/h 0 %
17:00:00 clear sky -3.670 -3.670 -3.670 86 3.5 m/h 0 %
20:00:00 clear sky -5.370 -5.370 -5.370 79 4.13 m/h 0 %
23:00:00 clear sky -5.420 -5.420 -5.420 85 4.57 m/h 0 %
16-Dec-2019 (Mon)
02:00:00 few clouds -5.820 -5.820 -5.820 86 4.74 m/h 0 %
05:00:00 few clouds -6.210 -6.210 -6.210 87 5.08 m/h 0 %
08:00:00 scattered clouds -5.390 -5.390 -5.390 86 5.13 m/h 0 %
11:00:00 few clouds -0.330 -0.330 -0.330 86 3.97 m/h 0 %
14:00:00 few clouds 0.390 0.390 0.390 88 3.4 m/h 0 %
17:00:00 clear sky -4.490 -4.490 -4.490 79 4.33 m/h 0 %
20:00:00 clear sky -5.740 -5.740 -5.740 74 5.09 m/h 0 %
23:00:00 clear sky -6.210 -6.210 -6.210 78 5.45 m/h 0 %

Famous Cities (61)